Time;durP1;ratioP1;P1;durP2;ratioP2;P2;SDS_P1;SDS_P2;PMS_P1;PMS_P2;Temp;Humidity;BMP_temperature;BMP_pressure;BME280_temperature;BME280_humidity;BME280_pressure;Samples;Min_cycle;Max_cycle;Signal;HPM_P1;HPM_P2
2023/12/08 00:00:28;;;;;;;13.45;9.18;;;1.60;99.90;;;;;;5124274;28;20036;-80
2023/12/08 00:02:54;;;;;;;13.63;8.98;;;1.40;99.90;;;;;;5121294;28;20042;-81
2023/12/08 00:05:19;;;;;;;14.50;9.48;;;1.30;99.90;;;;;;5125096;27;20043;-80
2023/12/08 00:07:45;;;;;;;13.02;8.93;;;1.30;99.90;;;;;;5121369;28;20036;-80
2023/12/08 00:10:12;;;;;;;14.02;9.85;;;1.30;99.90;;;;;;5123078;28;20075;-80
2023/12/08 00:12:38;;;;;;;12.80;9.73;;;1.30;99.90;;;;;;5124049;28;20046;-80
2023/12/08 00:15:05;;;;;;;13.52;9.70;;;1.30;99.90;;;;;;5104400;28;20063;-79
2023/12/08 00:17:31;;;;;;;14.43;9.63;;;1.30;99.90;;;;;;5123689;28;20044;-80
2023/12/08 00:19:57;;;;;;;20.40;16.15;;;1.30;99.90;;;;;;5121553;28;20040;-79
2023/12/08 00:22:23;;;;;;;13.13;9.18;;;1.30;99.90;;;;;;5122421;28;20272;-79
2023/12/08 00:24:49;;;;;;;14.48;10.30;;;1.30;99.90;;;;;;5119896;28;20074;-79
2023/12/08 00:27:14;;;;;;;15.32;10.85;;;1.20;99.90;;;;;;5123741;28;20036;-79
2023/12/08 00:29:40;;;;;;;15.93;10.45;;;1.30;99.90;;;;;;5122047;28;20506;-80
2023/12/08 00:32:06;;;;;;;16.65;9.80;;;1.80;99.90;;;;;;5103493;28;20086;-79
2023/12/08 00:34:31;;;;;;;15.80;10.18;;;1.30;99.90;;;;;;5105192;28;20039;-79
2023/12/08 00:36:57;;;;;;;17.67;10.23;;;1.30;99.90;;;;;;5119830;28;20054;-79
2023/12/08 00:39:23;;;;;;;16.25;10.43;;;1.30;99.90;;;;;;5122358;28;20039;-80
2023/12/08 00:41:49;;;;;;;15.20;10.52;;;1.30;99.90;;;;;;5121981;28;20035;-80
2023/12/08 00:44:14;;;;;;;16.90;10.15;;;1.40;99.90;;;;;;5102781;28;20032;-80
2023/12/08 00:46:40;;;;;;;13.95;10.13;;;1.30;99.90;;;;;;5120954;28;20044;-79
2023/12/08 00:49:06;;;;;;;16.20;9.98;;;1.30;99.90;;;;;;5067361;28;20044;-78
2023/12/08 00:51:31;;;;;;;16.63;10.38;;;1.30;99.90;;;;;;5122641;28;20557;-78
2023/12/08 00:53:57;;;;;;;13.68;9.43;;;1.30;99.90;;;;;;5120411;28;20044;-79
2023/12/08 00:56:23;;;;;;;16.50;9.50;;;1.20;99.90;;;;;;5122148;28;20099;-79
2023/12/08 00:58:48;;;;;;;14.57;10.20;;;1.20;99.90;;;;;;5121674;28;20087;-78
2023/12/08 01:01:16;;;;;;;14.35;10.07;;;1.50;99.90;;;;;;5102024;28;20048;-81
2023/12/08 01:03:42;;;;;;;17.35;10.35;;;1.60;99.90;;;;;;5120968;28;20040;-79
2023/12/08 01:06:08;;;;;;;14.15;9.98;;;1.20;99.90;;;;;;5086650;28;20407;-78
2023/12/08 01:08:36;;;;;;;12.45;9.20;;;1.20;99.90;;;;;;5122927;28;20072;-78
2023/12/08 01:11:02;;;;;;;13.30;9.52;;;1.20;99.90;;;;;;5119438;28;20051;-80
2023/12/08 01:13:28;;;;;;;14.55;10.57;;;1.20;99.90;;;;;;5103872;28;20047;-80
2023/12/08 01:15:54;;;;;;;15.98;10.13;;;1.20;99.90;;;;;;5119105;28;20051;-81
2023/12/08 01:18:21;;;;;;;15.82;10.15;;;1.20;99.90;;;;;;5123116;28;20039;-81
2023/12/08 01:20:46;;;;;;;14.98;10.00;;;1.20;99.90;;;;;;5120864;28;20406;-80
2023/12/08 01:23:13;;;;;;;14.95;9.80;;;1.20;99.90;;;;;;5122721;28;20038;-80
2023/12/08 01:25:38;;;;;;;15.60;10.02;;;2.30;99.90;;;;;;5121687;28;20406;-81
2023/12/08 01:28:04;;;;;;;14.93;10.43;;;1.20;99.90;;;;;;5099530;28;20036;-82
2023/12/08 01:30:30;;;;;;;12.52;9.80;;;1.20;99.90;;;;;;5122646;28;20090;-81
2023/12/08 01:32:55;;;;;;;16.00;10.10;;;1.20;99.90;;;;;;5119006;28;20059;-80
2023/12/08 01:35:21;;;;;;;15.27;12.57;;;1.20;99.90;;;;;;5105616;28;20494;-81
2023/12/08 01:37:47;;;;;;;16.17;11.13;;;1.20;99.90;;;;;;5119832;28;20047;-80
2023/12/08 01:40:12;;;;;;;16.30;9.93;;;1.20;99.90;;;;;;5121504;28;20054;-79
2023/12/08 01:42:38;;;;;;;16.35;10.52;;;1.20;99.90;;;;;;5122602;28;20562;-78
2023/12/08 01:45:04;;;;;;;14.98;9.70;;;1.20;99.90;;;;;;5121281;28;20039;-80
2023/12/08 01:47:30;;;;;;;18.45;11.88;;;1.20;99.90;;;;;;5123058;28;20133;-80
2023/12/08 01:49:56;;;;;;;16.10;10.90;;;1.20;99.90;;;;;;5119525;28;20044;-82
2023/12/08 01:52:23;;;;;;;15.60;10.40;;;1.30;99.90;;;;;;5122396;28;20104;-80
2023/12/08 01:54:52;;;;;;;16.48;9.90;;;1.20;99.90;;;;;;5120660;28;20067;-81
2023/12/08 01:57:19;;;;;;;17.85;10.95;;;1.20;99.90;;;;;;5121248;28;20124;-82
2023/12/08 01:59:47;;;;;;;15.52;10.43;;;1.20;99.90;;;;;;5122278;28;20035;-79
2023/12/08 02:02:13;;;;;;;14.73;10.43;;;1.20;99.90;;;;;;5102579;28;20051;-78
2023/12/08 02:04:44;;;;;;;15.63;10.38;;;1.10;99.90;;;;;;5123035;27;20181;-81
2023/12/08 02:07:10;;;;;;;16.88;11.13;;;1.10;99.90;;;;;;5119391;28;20040;-81
2023/12/08 02:09:36;;;;;;;16.85;11.10;;;1.70;99.90;;;;;;5122107;28;20087;-79
2023/12/08 02:12:02;;;;;;;17.33;11.05;;;1.10;99.90;;;;;;5121423;28;20081;-78
2023/12/08 02:14:28;;;;;;;15.75;9.98;;;1.20;99.90;;;;;;5122394;28;20122;-78
2023/12/08 02:17:00;;;;;;;15.52;10.95;;;1.10;99.90;;;;;;5122488;28;20063;-78
2023/12/08 02:19:26;;;;;;;15.52;10.68;;;1.10;99.90;;;;;;5116641;28;20043;-80
2023/12/08 02:21:53;;;;;;;16.75;10.48;;;1.10;99.90;;;;;;5123037;28;20402;-78
2023/12/08 02:24:19;;;;;;;14.50;9.55;;;1.30;99.90;;;;;;5102408;28;20040;-80
2023/12/08 02:26:49;;;;;;;16.02;10.35;;;1.10;99.90;;;;;;5122496;28;20103;-78
2023/12/08 02:29:15;;;;;;;13.82;10.63;;;1.10;99.90;;;;;;5120388;28;20484;-71
2023/12/08 02:32:05;;;;;;;19.08;10.13;;;1.10;99.90;;;;;;5119984;28;20028;-71
2023/12/08 02:34:32;;;;;;;15.55;10.02;;;1.10;99.90;;;;;;5121715;28;20055;-71
2023/12/08 02:37:01;;;;;;;17.55;10.38;;;1.10;99.90;;;;;;5102424;28;20054;-71
2023/12/08 02:39:28;;;;;;;17.27;9.93;;;1.10;99.90;;;;;;5122487;28;20091;-71
2023/12/08 02:41:54;;;;;;;14.23;10.00;;;1.10;99.90;;;;;;5119466;28;20040;-71
2023/12/08 02:44:19;;;;;;;14.15;10.40;;;1.20;99.90;;;;;;5119730;28;20142;-71
2023/12/08 02:46:45;;;;;;;16.75;10.68;;;1.10;99.90;;;;;;5119976;28;20039;-71
2023/12/08 02:49:11;;;;;;;16.33;9.95;;;1.10;99.90;;;;;;5117430;28;20040;-71
2023/12/08 02:51:37;;;;;;;15.98;10.10;;;1.10;99.90;;;;;;5118391;28;20077;-71
2023/12/08 02:54:03;;;;;;;14.60;10.88;;;1.10;99.90;;;;;;5116447;28;20565;-71
2023/12/08 02:56:28;;;;;;;14.70;9.27;;;1.10;99.90;;;;;;5118992;28;20134;-71
2023/12/08 02:58:54;;;;;;;15.95;10.20;;;1.20;99.90;;;;;;5118854;28;20145;-71
2023/12/08 03:01:20;;;;;;;13.85;9.55;;;1.10;99.90;;;;;;5120475;28;20117;-71
2023/12/08 03:03:45;;;;;;;14.32;9.23;;;1.20;99.90;;;;;;5119773;28;20047;-71
2023/12/08 03:06:11;;;;;;;14.82;9.88;;;1.10;99.90;;;;;;5119074;28;20066;-71
2023/12/08 03:08:37;;;;;;;13.10;10.32;;;1.20;99.90;;;;;;5104456;28;20055;-71
2023/12/08 03:11:03;;;;;;;15.02;9.68;;;1.10;99.90;;;;;;5122557;28;20059;-71
2023/12/08 03:13:28;;;;;;;12.60;9.30;;;1.20;99.90;;;;;;5124774;28;20756;-71
2023/12/08 03:15:54;;;;;;;13.85;9.30;;;1.20;99.90;;;;;;5122578;28;20051;-71
2023/12/08 03:18:20;;;;;;;13.38;8.57;;;1.20;99.90;;;;;;5123846;28;20059;-71
2023/12/08 03:20:45;;;;;;;15.15;9.18;;;1.20;99.90;;;;;;5125058;28;20040;-71
2023/12/08 03:23:11;;;;;;;13.75;9.38;;;1.20;99.90;;;;;;5106600;28;20044;-71
2023/12/08 03:25:37;;;;;;;13.75;9.52;;;1.20;99.90;;;;;;5124465;28;20043;-70
2023/12/08 03:28:02;;;;;;;15.02;9.68;;;1.20;99.90;;;;;;5122554;28;20060;-71
2023/12/08 03:30:28;;;;;;;13.70;8.75;;;1.20;99.90;;;;;;5124396;28;20047;-71
2023/12/08 03:32:54;;;;;;;12.93;8.80;;;1.20;99.90;;;;;;5101510;28;20046;-71
2023/12/08 03:35:20;;;;;;;15.85;9.10;;;1.20;99.90;;;;;;5114618;28;20088;-71
2023/12/08 03:37:46;;;;;;;15.20;9.93;;;1.20;99.90;;;;;;5122648;28;20096;-71
2023/12/08 03:40:12;;;;;;;14.77;9.48;;;1.20;99.90;;;;;;5124443;28;20043;-71
2023/12/08 03:42:38;;;;;;;11.35;8.85;;;1.20;99.90;;;;;;5122992;28;20103;-71
2023/12/08 03:45:04;;;;;;;14.82;10.00;;;1.20;99.90;;;;;;5121817;28;20131;-71
2023/12/08 03:47:30;;;;;;;14.13;9.93;;;1.20;99.90;;;;;;5123260;28;20035;-71
2023/12/08 03:49:56;;;;;;;15.23;10.27;;;1.20;99.90;;;;;;5121568;28;20039;-70
2023/12/08 03:52:22;;;;;;;13.77;9.85;;;1.10;99.90;;;;;;5124999;28;20099;-70
2023/12/08 03:54:47;;;;;;;15.90;9.98;;;1.10;99.90;;;;;;5101744;28;20103;-70
2023/12/08 03:57:13;;;;;;;14.48;9.80;;;1.00;99.90;;;;;;5114574;28;20102;-69
2023/12/08 03:59:42;;;;;;;14.77;10.30;;;1.00;99.90;;;;;;5124423;28;20050;-70
2023/12/08 04:02:08;;;;;;;15.50;11.38;;;1.00;99.90;;;;;;5121344;28;20103;-70
2023/12/08 04:04:33;;;;;;;13.32;10.13;;;0.90;99.90;;;;;;5123597;28;20043;-69
2023/12/08 04:06:59;;;;;;;16.40;12.25;;;0.90;99.90;;;;;;5121487;28;20138;-70
2023/12/08 04:09:25;;;;;;;15.88;10.65;;;0.90;99.90;;;;;;5123148;28;20040;-69
2023/12/08 04:11:50;;;;;;;16.83;12.57;;;0.90;99.90;;;;;;5121690;28;20044;-70
2023/12/08 04:14:16;;;;;;;16.20;11.27;;;0.90;99.90;;;;;;5124486;28;20261;-70
2023/12/08 04:16:42;;;;;;;17.00;11.60;;;0.90;99.90;;;;;;5123482;28;20560;-69
2023/12/08 04:19:08;;;;;;;15.35;10.77;;;0.80;99.90;;;;;;5123310;28;20032;-69
2023/12/08 04:21:33;;;;;;;14.15;11.10;;;0.90;99.90;;;;;;5124516;28;20061;-69
2023/12/08 04:23:59;;;;;;;14.98;11.25;;;0.80;99.90;;;;;;5120715;28;20035;-69
2023/12/08 04:26:25;;;;;;;15.27;11.35;;;0.80;99.90;;;;;;5123020;28;20043;-69
2023/12/08 04:28:54;;;;;;;13.80;11.57;;;0.80;99.90;;;;;;5121566;28;20069;-69
2023/12/08 04:31:20;;;;;;;16.85;11.95;;;0.80;99.90;;;;;;5121013;28;20036;-70
2023/12/08 04:33:47;;;;;;;16.15;11.10;;;0.90;99.90;;;;;;5120104;28;20051;-69
2023/12/08 04:36:13;;;;;;;14.98;11.32;;;0.90;99.90;;;;;;5121024;28;20023;-69
2023/12/08 04:38:39;;;;;;;13.98;11.43;;;0.90;99.90;;;;;;5122521;28;20050;-69
2023/12/08 04:41:05;;;;;;;15.90;11.68;;;0.90;99.90;;;;;;5120935;28;20040;-69
2023/12/08 04:43:30;;;;;;;15.95;11.20;;;0.90;99.90;;;;;;5124663;28;20085;-69
2023/12/08 04:45:56;;;;;;;16.52;10.82;;;0.90;99.90;;;;;;5120879;28;20043;-69
2023/12/08 04:48:22;;;;;;;13.20;10.20;;;0.90;99.90;;;;;;5122860;28;20051;-70
2023/12/08 04:50:49;;;;;;;14.93;12.05;;;0.90;99.90;;;;;;5121433;28;20070;-69
2023/12/08 04:53:15;;;;;;;16.73;11.18;;;0.90;99.90;;;;;;5122481;28;20104;-69
2023/12/08 04:55:41;;;;;;;16.35;11.02;;;0.90;99.90;;;;;;5123419;28;20032;-69
2023/12/08 04:58:06;;;;;;;16.58;11.07;;;0.90;99.90;;;;;;5120849;28;20039;-69
2023/12/08 05:00:32;;;;;;;14.20;11.15;;;0.90;99.90;;;;;;5122319;28;20111;-69
2023/12/08 05:02:58;;;;;;;16.10;11.73;;;0.90;99.90;;;;;;5121246;28;20495;-70
2023/12/08 05:05:24;;;;;;;15.55;11.05;;;0.90;99.90;;;;;;5123991;28;20094;-70
2023/12/08 05:07:50;;;;;;;14.63;10.85;;;0.90;99.90;;;;;;5122896;28;20121;-70
2023/12/08 05:10:16;;;;;;;16.25;12.00;;;1.10;99.90;;;;;;5122787;28;20111;-70
2023/12/08 05:12:43;;;;;;;17.10;11.80;;;0.80;99.90;;;;;;5122684;28;20538;-69
2023/12/08 05:15:09;;;;;;;18.13;11.75;;;0.90;99.90;;;;;;5120647;28;20069;-70
2023/12/08 05:17:35;;;;;;;15.50;11.10;;;0.90;99.90;;;;;;5122485;28;20035;-69
2023/12/08 05:20:04;;;;;;;17.70;12.98;;;0.80;99.90;;;;;;5120931;28;20402;-70
2023/12/08 05:22:30;;;;;;;16.23;12.75;;;0.90;99.90;;;;;;5123766;28;20050;-70
2023/12/08 05:24:55;;;;;;;15.93;12.43;;;0.90;99.90;;;;;;5122156;28;20119;-70
2023/12/08 05:27:21;;;;;;;15.15;11.95;;;0.90;99.90;;;;;;5122921;28;20040;-70
2023/12/08 05:29:47;;;;;;;14.68;11.48;;;0.90;99.90;;;;;;5123160;27;20039;-70
2023/12/08 05:32:12;;;;;;;17.05;12.18;;;0.90;99.90;;;;;;5119000;28;20091;-70
2023/12/08 05:34:38;;;;;;;16.83;12.02;;;0.90;99.90;;;;;;5123326;28;20099;-70
2023/12/08 05:37:04;;;;;;;16.27;11.65;;;0.80;99.90;;;;;;5121604;28;20035;-70
2023/12/08 05:39:30;;;;;;;18.35;12.60;;;0.80;99.90;;;;;;5122686;28;20040;-70
2023/12/08 05:41:56;;;;;;;15.23;11.63;;;0.80;99.90;;;;;;5121220;28;20035;-70
2023/12/08 05:44:21;;;;;;;15.73;12.13;;;0.80;99.90;;;;;;5123030;28;20055;-71
2023/12/08 05:46:47;;;;;;;16.52;12.15;;;0.80;99.90;;;;;;5122743;28;20095;-71
2023/12/08 05:49:13;;;;;;;16.83;12.77;;;0.80;99.90;;;;;;5120947;28;20040;-71
2023/12/08 05:51:38;;;;;;;17.13;12.60;;;0.80;99.90;;;;;;5123292;28;20390;-71
2023/12/08 05:54:04;;;;;;;14.98;12.52;;;0.90;99.90;;;;;;5119727;28;20046;-71
2023/12/08 05:56:31;;;;;;;16.08;12.52;;;0.80;99.90;;;;;;5123131;28;20044;-71
2023/12/08 05:58:56;;;;;;;18.90;11.65;;;0.80;99.90;;;;;;5119747;28;20048;-71
2023/12/08 06:01:22;;;;;;;16.63;12.82;;;0.70;99.90;;;;;;5122458;28;20103;-71
2023/12/08 06:03:48;;;;;;;14.82;12.10;;;0.80;99.90;;;;;;5119853;28;20105;-71
2023/12/08 06:06:13;;;;;;;15.70;12.45;;;0.70;99.90;;;;;;5120197;28;20119;-71
2023/12/08 06:08:39;;;;;;;18.13;13.00;;;0.70;99.90;;;;;;5123022;28;20076;-71
2023/12/08 06:11:06;;;;;;;18.92;12.85;;;0.70;99.90;;;;;;5119156;28;20056;-71
2023/12/08 06:13:31;;;;;;;15.90;12.70;;;0.70;99.90;;;;;;5121295;28;20062;-71
2023/12/08 06:15:57;;;;;;;15.48;12.35;;;0.70;99.90;;;;;;5120300;28;20493;-71
2023/12/08 06:18:23;;;;;;;17.08;13.57;;;2.00;99.90;;;;;;5120452;28;20046;-71
2023/12/08 06:20:49;;;;;;;17.13;12.50;;;0.70;99.90;;;;;;5121971;28;20059;-71
2023/12/08 06:23:15;;;;;;;17.90;13.02;;;0.70;99.90;;;;;;5121369;28;20036;-71
2023/12/08 06:25:41;;;;;;;18.17;13.25;;;0.70;99.90;;;;;;5121041;28;20088;-71
2023/12/08 06:28:06;;;;;;;17.88;13.13;;;0.70;99.90;;;;;;5120740;28;20036;-71
2023/12/08 06:30:32;;;;;;;16.85;14.02;;;0.70;99.90;;;;;;5121337;28;20052;-72
2023/12/08 06:32:58;;;;;;;19.27;14.13;;;0.70;99.90;;;;;;5119624;28;20043;-71
2023/12/08 06:35:23;;;;;;;18.60;14.30;;;0.70;99.90;;;;;;5117946;28;20067;-71
2023/12/08 06:37:50;;;;;;;19.30;13.90;;;0.70;99.90;;;;;;5120222;28;20072;-71
2023/12/08 06:40:16;;;;;;;18.52;14.18;;;0.70;99.90;;;;;;5121757;28;20046;-71
2023/12/08 06:42:42;;;;;;;18.27;13.75;;;0.70;99.90;;;;;;5123316;28;20039;-71
2023/12/08 06:45:08;;;;;;;17.92;14.20;;;0.70;99.90;;;;;;5123992;28;20050;-71
2023/12/08 06:47:34;;;;;;;18.33;15.23;;;0.70;99.90;;;;;;5125164;28;20075;-70
2023/12/08 06:50:00;;;;;;;18.58;14.25;;;0.80;99.90;;;;;;5123923;28;20055;-71
2023/12/08 06:52:26;;;;;;;18.42;14.55;;;0.70;99.90;;;;;;5124814;28;20040;-71
2023/12/08 06:54:51;;;;;;;16.27;13.90;;;0.70;99.90;;;;;;5122366;28;20048;-71
2023/12/08 06:57:17;;;;;;;22.65;15.40;;;0.70;99.90;;;;;;5124674;28;20043;-71
2023/12/08 06:59:43;;;;;;;18.83;15.02;;;0.70;99.90;;;;;;5125652;28;20042;-72
2023/12/08 07:02:08;;;;;;;17.80;14.05;;;0.70;99.90;;;;;;5124345;27;20039;-71
2023/12/08 07:04:34;;;;;;;18.52;14.65;;;0.70;99.90;;;;;;5124179;28;20036;-71
2023/12/08 07:07:00;;;;;;;20.27;15.32;;;0.70;99.90;;;;;;5123094;28;20039;-72
2023/12/08 07:09:25;;;;;;;18.27;15.27;;;0.70;99.90;;;;;;5125171;28;20079;-71
2023/12/08 07:11:51;;;;;;;18.85;14.68;;;1.00;99.90;;;;;;5123091;28;20047;-71
2023/12/08 07:14:17;;;;;;;18.60;14.43;;;0.70;99.90;;;;;;5125536;28;20043;-72
2023/12/08 07:16:43;;;;;;;19.35;14.15;;;0.70;99.90;;;;;;5124604;28;20070;-72
2023/12/08 07:19:09;;;;;;;18.25;15.02;;;0.70;99.90;;;;;;5124456;28;20055;-72
2023/12/08 07:21:42;;;;;;;17.58;15.50;;;0.60;99.90;;;;;;5126048;28;20134;-72
2023/12/08 07:24:08;;;;;;;17.60;15.05;;;0.60;99.90;;;;;;5122983;28;20051;-72
2023/12/08 07:26:34;;;;;;;18.98;14.25;;;0.70;99.90;;;;;;5126100;28;20096;-72
2023/12/08 07:29:00;;;;;;;20.17;15.52;;;0.70;99.90;;;;;;5105909;28;20506;-72
2023/12/08 07:31:25;;;;;;;20.17;15.80;;;0.70;99.90;;;;;;5125219;28;20462;-72
2023/12/08 07:33:51;;;;;;;20.13;16.02;;;1.00;99.90;;;;;;5122946;28;20058;-71
2023/12/08 07:36:17;;;;;;;17.25;15.45;;;0.60;99.90;;;;;;5122162;28;20039;-72
2023/12/08 07:38:44;;;;;;;17.98;15.23;;;0.60;99.90;;;;;;5123974;28;20039;-72
2023/12/08 07:41:10;;;;;;;18.95;16.45;;;0.70;99.90;;;;;;5122503;28;20111;-72
2023/12/08 07:43:36;;;;;;;17.23;15.07;;;0.70;99.90;;;;;;5124576;28;20024;-72
2023/12/08 07:46:02;;;;;;;18.73;15.13;;;0.70;99.90;;;;;;5123293;28;20044;-71
2023/12/08 07:48:28;;;;;;;19.13;15.00;;;0.70;99.90;;;;;;5125454;28;20048;-71
2023/12/08 07:50:54;;;;;;;25.15;16.52;;;0.70;99.90;;;;;;5123425;28;20067;-72
2023/12/08 07:53:20;;;;;;;22.10;16.35;;;0.70;99.90;;;;;;5124143;28;20043;-72
2023/12/08 07:55:45;;;;;;;18.42;15.55;;;0.80;99.90;;;;;;5124457;28;20050;-72
2023/12/08 07:58:11;;;;;;;23.17;16.15;;;0.80;99.90;;;;;;5123444;28;20103;-72
2023/12/08 08:00:37;;;;;;;18.10;15.18;;;0.70;99.90;;;;;;5123770;28;20040;-72
2023/12/08 08:03:04;;;;;;;22.45;16.33;;;0.70;99.90;;;;;;5120915;28;20054;-72
2023/12/08 08:05:30;;;;;;;20.65;16.27;;;0.80;99.90;;;;;;5123838;28;20048;-73
2023/12/08 08:07:56;;;;;;;18.75;15.23;;;0.80;99.90;;;;;;5122542;28;20062;-72
2023/12/08 08:10:22;;;;;;;18.10;15.60;;;0.80;99.90;;;;;;5122108;28;20051;-73
2023/12/08 08:12:47;;;;;;;20.35;15.23;;;0.80;99.90;;;;;;5124682;28;20097;-72
2023/12/08 08:15:13;;;;;;;20.77;15.70;;;1.00;99.90;;;;;;5123024;28;20046;-72
2023/12/08 08:17:39;;;;;;;19.30;16.15;;;0.80;99.90;;;;;;5124793;28;20313;-73
2023/12/08 08:20:06;;;;;;;17.25;15.10;;;0.90;99.90;;;;;;5122666;28;20486;-73
2023/12/08 08:22:32;;;;;;;18.20;15.32;;;0.90;99.90;;;;;;5125152;28;20046;-73
2023/12/08 08:25:02;;;;;;;19.27;15.65;;;0.90;99.90;;;;;;5116110;28;20093;-73
2023/12/08 08:27:28;;;;;;;17.65;14.50;;;0.90;99.90;;;;;;5119256;28;20509;-72
2023/12/08 08:29:54;;;;;;;19.75;15.73;;;1.20;99.90;;;;;;5119068;28;20055;-72
2023/12/08 08:32:20;;;;;;;18.27;14.80;;;1.10;99.90;;;;;;5118900;28;20046;-72
2023/12/08 08:34:46;;;;;;;19.15;15.32;;;0.90;99.90;;;;;;5120147;28;20032;-73
2023/12/08 08:37:12;;;;;;;20.38;15.95;;;0.90;99.90;;;;;;5120648;28;20039;-72
2023/12/08 08:39:37;;;;;;;16.17;14.38;;;0.90;99.90;;;;;;5119889;28;20099;-72
2023/12/08 08:42:03;;;;;;;19.23;14.70;;;0.90;99.90;;;;;;5121499;28;20076;-72
2023/12/08 08:44:29;;;;;;;17.95;14.50;;;0.90;99.90;;;;;;5125784;27;20047;-72
2023/12/08 08:46:55;;;;;;;19.90;14.07;;;0.90;99.90;;;;;;5121390;28;20043;-73
2023/12/08 08:49:22;;;;;;;17.95;14.48;;;0.90;99.90;;;;;;5118424;28;20601;-72
2023/12/08 08:51:48;;;;;;;16.50;13.95;;;0.90;99.90;;;;;;5121287;28;20049;-72
2023/12/08 08:54:13;;;;;;;21.10;15.00;;;0.90;99.90;;;;;;5118978;27;20048;-72
2023/12/08 08:56:39;;;;;;;17.40;13.88;;;0.90;99.90;;;;;;5119561;28;20043;-72
2023/12/08 08:59:05;;;;;;;19.83;14.63;;;1.10;99.90;;;;;;5119995;28;20039;-73
2023/12/08 09:01:30;;;;;;;17.45;13.98;;;1.00;99.90;;;;;;5121615;27;20054;-73
2023/12/08 09:03:56;;;;;;;17.23;13.73;;;1.00;99.90;;;;;;5121182;28;20428;-72
2023/12/08 09:06:22;;;;;;;18.30;14.20;;;1.00;99.90;;;;;;5118687;28;20058;-73
2023/12/08 09:08:47;;;;;;;20.05;14.43;;;1.00;99.90;;;;;;5121040;28;20082;-73
2023/12/08 09:11:13;;;;;;;18.92;15.20;;;1.00;99.90;;;;;;5118283;28;20101;-73
2023/12/08 09:13:39;;;;;;;19.63;14.63;;;1.00;99.90;;;;;;5121944;28;20040;-72
2023/12/08 09:16:05;;;;;;;16.05;13.95;;;1.10;99.90;;;;;;5119932;28;20066;-72
2023/12/08 09:18:30;;;;;;;16.33;14.38;;;1.00;99.90;;;;;;5122606;28;20043;-72
2023/12/08 09:20:56;;;;;;;19.05;15.57;;;1.00;99.90;;;;;;5121294;28;20483;-72
2023/12/08 09:23:22;;;;;;;18.40;14.98;;;1.00;99.90;;;;;;5118124;28;20075;-72
2023/12/08 09:25:47;;;;;;;17.60;15.02;;;1.00;99.90;;;;;;5099619;28;20419;-71
2023/12/08 09:28:15;;;;;;;20.58;14.80;;;1.00;99.90;;;;;;5119873;27;20039;-72
2023/12/08 09:30:42;;;;;;;18.25;15.10;;;0.90;99.90;;;;;;5120939;28;20050;-72
2023/12/08 09:33:09;;;;;;;16.58;14.57;;;1.00;99.90;;;;;;5120372;28;20043;-72
2023/12/08 09:35:35;;;;;;;16.77;14.80;;;1.20;99.90;;;;;;5123139;28;20039;-72
2023/12/08 09:38:01;;;;;;;18.60;15.02;;;1.10;99.90;;;;;;5122465;28;20077;-72
2023/12/08 09:40:28;;;;;;;18.08;15.70;;;1.10;99.90;;;;;;5119901;28;20099;-72
2023/12/08 09:43:10;;;;;;;17.52;14.57;;;1.10;99.90;;;;;;5123114;28;20051;-72
2023/12/08 09:45:37;;;;;;;17.08;15.10;;;1.10;99.90;;;;;;5120866;28;20096;-72
2023/12/08 09:48:06;;;;;;;21.80;14.88;;;1.10;99.90;;;;;;5121377;28;20051;-72
2023/12/08 09:50:32;;;;;;;17.80;14.77;;;1.10;99.90;;;;;;5121142;28;20467;-72
2023/12/08 09:52:59;;;;;;;18.50;14.98;;;1.20;99.90;;;;;;5120982;28;20035;-72
2023/12/08 09:55:26;;;;;;;16.55;13.77;;;1.20;99.90;;;;;;5120701;28;20100;-71
2023/12/08 09:57:53;;;;;;;18.02;14.18;;;1.20;99.90;;;;;;5120527;28;20050;-71
2023/12/08 10:00:20;;;;;;;17.42;14.52;;;1.20;99.90;;;;;;5122051;28;20447;-71
2023/12/08 10:02:45;;;;;;;17.52;15.18;;;1.20;99.90;;;;;;5118036;28;20047;-72
2023/12/08 10:05:11;;;;;;;16.77;13.43;;;1.20;99.90;;;;;;5121443;28;20051;-71
2023/12/08 10:07:40;;;;;;;19.85;14.68;;;1.20;99.90;;;;;;5121306;28;20044;-71
2023/12/08 10:10:08;;;;;;;17.70;14.63;;;1.30;99.90;;;;;;5119682;28;20079;-71
2023/12/08 10:12:34;;;;;;;19.52;14.93;;;1.20;99.90;;;;;;5122781;28;20047;-71
2023/12/08 10:15:04;;;;;;;18.70;14.52;;;1.20;99.90;;;;;;5120708;28;20046;-71
2023/12/08 10:17:29;;;;;;;17.90;14.23;;;1.20;99.90;;;;;;5120967;28;20053;-71
2023/12/08 10:20:09;;;;;;;18.80;15.60;;;1.30;99.90;;;;;;5120483;28;20043;-71
2023/12/08 10:22:50;;;;;;;17.58;14.77;;;1.20;99.90;;;;;;5122445;28;20082;-71
2023/12/08 10:25:20;;;;;;;20.55;14.57;;;1.20;99.90;;;;;;5121718;28;20047;-70
2023/12/08 10:27:56;;;;;;;17.50;14.77;;;1.20;99.90;;;;;;5120004;28;20043;-70
2023/12/08 10:30:24;;;;;;;19.35;15.55;;;1.20;99.90;;;;;;5121913;28;20039;-70
2023/12/08 10:32:50;;;;;;;18.75;15.18;;;1.30;99.90;;;;;;5120233;28;20044;-70
2023/12/08 10:35:16;;;;;;;17.90;14.80;;;1.30;99.90;;;;;;5122655;28;20050;-70
2023/12/08 10:37:43;;;;;;;17.48;15.20;;;1.30;99.90;;;;;;5121889;28;20038;-70
2023/12/08 10:40:13;;;;;;;18.27;14.70;;;1.50;99.90;;;;;;5121292;28;20039;-70
2023/12/08 10:42:40;;;;;;;18.27;14.15;;;1.40;99.90;;;;;;5120071;28;20100;-70
2023/12/08 10:45:13;;;;;;;20.13;15.75;;;1.40;99.90;;;;;;5119141;28;20499;-70
2023/12/08 10:47:43;;;;;;;19.27;15.52;;;1.40;99.90;;;;;;5122836;28;20714;-70
2023/12/08 10:50:10;;;;;;;20.25;15.77;;;1.40;99.90;;;;;;5119189;28;20052;-70
2023/12/08 10:52:40;;;;;;;19.45;15.32;;;1.40;99.90;;;;;;5121872;28;20044;-70
2023/12/08 10:55:07;;;;;;;17.98;16.00;;;1.40;99.90;;;;;;5121939;28;20048;-70
2023/12/08 10:57:36;;;;;;;20.70;17.23;;;1.40;99.90;;;;;;5119936;28;20051;-70
2023/12/08 11:00:17;;;;;;;23.65;17.00;;;1.40;99.90;;;;;;5121314;28;20067;-70
2023/12/08 11:02:49;;;;;;;21.50;16.73;;;1.40;99.90;;;;;;5120148;28;20130;-70
2023/12/08 11:05:28;;;;;;;21.65;17.08;;;1.50;99.90;;;;;;5120277;28;20075;-70
2023/12/08 11:07:57;;;;;;;25.75;17.45;;;1.50;99.90;;;;;;5121664;28;20047;-70
2023/12/08 11:10:28;;;;;;;22.33;17.55;;;1.50;99.90;;;;;;5120873;28;20406;-70
2023/12/08 11:12:59;;;;;;;22.38;18.50;;;1.40;99.90;;;;;;5122419;28;20036;-70
2023/12/08 11:15:30;;;;;;;26.50;18.58;;;1.60;99.90;;;;;;5120119;28;20036;-70
2023/12/08 11:18:21;;;;;;;21.58;17.55;;;1.60;99.90;;;;;;5120086;28;20078;-70
2023/12/08 11:20:47;;;;;;;29.48;19.38;;;1.50;99.90;;;;;;5119496;28;20044;-70
2023/12/08 11:23:13;;;;;;;33.70;19.10;;;1.50;99.90;;;;;;5120342;28;20047;-70
2023/12/08 11:25:47;;;;;;;22.08;18.33;;;1.50;99.90;;;;;;5122333;28;20047;-70
2023/12/08 11:28:22;;;;;;;23.45;17.75;;;1.60;99.90;;;;;;5119840;28;20546;-70
2023/12/08 11:31:26;;;;;;;22.25;17.90;;;1.50;99.90;;;;;;5123716;28;20130;-69
2023/12/08 11:34:02;;;;;;;28.73;19.05;;;1.50;99.90;;;;;;5120467;28;20067;-69
2023/12/08 11:36:28;;;;;;;27.40;18.48;;;1.70;99.90;;;;;;5123913;28;20078;-69
2023/12/08 11:38:55;;;;;;;23.45;18.65;;;1.50;99.90;;;;;;5125632;28;20040;-70
2023/12/08 11:41:22;;;;;;;31.50;19.80;;;1.50;99.90;;;;;;5121418;28;20135;-69
2023/12/08 11:43:48;;;;;;;27.58;20.25;;;1.50;99.90;;;;;;5125963;28;20082;-69
2023/12/08 11:46:15;;;;;;;34.60;21.77;;;1.50;99.90;;;;;;5122158;28;20047;-69
2023/12/08 11:48:42;;;;;;;26.50;20.80;;;1.70;99.90;;;;;;5124690;28;20095;-69
2023/12/08 11:51:07;;;;;;;27.13;20.33;;;2.60;99.90;;;;;;5125669;28;20058;-69
2023/12/08 11:53:52;;;;;;;25.38;20.83;;;1.60;99.90;;;;;;5122299;28;20051;-70
2023/12/08 11:56:41;;;;;;;32.58;22.25;;;1.60;99.90;;;;;;5125323;28;20054;-69
2023/12/08 11:59:07;;;;;;;30.85;22.45;;;1.60;99.90;;;;;;5122847;28;20048;-69
2023/12/08 12:01:37;;;;;;;26.75;22.13;;;1.60;99.90;;;;;;5123711;28;20038;-70
2023/12/08 12:04:03;;;;;;;27.70;22.33;;;1.60;99.90;;;;;;5124709;28;20038;-69
2023/12/08 12:06:30;;;;;;;25.85;21.23;;;1.60;99.90;;;;;;5122641;28;20047;-70
2023/12/08 12:08:59;;;;;;;29.45;21.75;;;1.70;99.90;;;;;;5125064;28;20032;-70
2023/12/08 12:11:35;;;;;;;32.00;22.65;;;1.70;99.90;;;;;;5122925;28;20104;-70
2023/12/08 12:14:04;;;;;;;;;;;1.70;99.90;;;;;;5124324;28;20075;-69
2023/12/08 12:16:30;;;;;;;35.60;21.17;;;1.70;99.90;;;;;;5124086;28;19919;-69
2023/12/08 12:18:55;;;;;;;26.90;20.33;;;2.10;99.90;;;;;;5122527;28;20094;-69
2023/12/08 12:21:21;;;;;;;25.50;21.10;;;1.80;99.90;;;;;;5123550;28;20051;-69
2023/12/08 12:23:47;;;;;;;28.63;21.15;;;1.70;99.90;;;;;;5122076;28;20048;-70
2023/12/08 12:26:18;;;;;;;27.02;20.25;;;2.10;99.90;;;;;;5124568;28;20036;-70
2023/12/08 12:28:43;;;;;;;30.10;20.80;;;1.70;99.90;;;;;;5122005;28;20070;-69
2023/12/08 12:31:09;;;;;;;32.95;22.17;;;1.80;99.90;;;;;;5123153;28;20051;-69
2023/12/08 12:33:36;;;;;;;26.17;19.77;;;1.80;99.90;;;;;;5122360;28;20043;-69
2023/12/08 12:36:03;;;;;;;39.58;22.48;;;1.70;99.90;;;;;;5122837;28;20059;-70